createdAt,value
2022-12-18T00:00:18.254Z,206.43
2022-12-18T00:00:51.106Z,204.15
2022-12-18T00:01:25.156Z,208.43
2022-12-18T00:02:00.988Z,202.63
2022-12-18T00:02:33.852Z,205.98
2022-12-18T00:03:06.781Z,207.90
2022-12-18T00:03:40.109Z,206.32
2022-12-18T00:04:23.405Z,208.18
2022-12-18T00:04:56.657Z,211.45
2022-12-18T00:05:31.530Z,210.88
2022-12-18T00:06:03.982Z,209.57
2022-12-18T00:06:36.479Z,207.65
2022-12-18T00:07:08.990Z,205.07
2022-12-18T00:07:41.470Z,203.77
2022-12-18T00:08:13.754Z,206.55
2022-12-18T00:08:46.361Z,204.35
2022-12-18T00:09:18.779Z,204.10
2022-12-18T00:09:51.298Z,205.25
2022-12-18T00:10:23.576Z,203.50
2022-12-18T00:10:59.579Z,201.63
2022-12-18T00:11:33.220Z,205.52
2022-12-18T00:12:48.277Z,206.23
2022-12-18T00:13:20.546Z,205.38
2022-12-18T00:13:54.268Z,203.07
2022-12-18T00:14:26.715Z,200.93
2022-12-18T00:14:59.068Z,203.07
2022-12-18T00:15:31.280Z,207.43
2022-12-18T00:16:07.889Z,204.15
2022-12-18T00:16:40.701Z,204.23
2022-12-18T00:17:12.986Z,207.88
2022-12-18T00:17:45.290Z,207.27
2022-12-18T00:18:20.572Z,205.13
2022-12-18T00:18:54.383Z,207.35
2022-12-18T00:19:26.704Z,204.15
2022-12-18T00:19:59.038Z,202.15
2022-12-18T00:20:31.660Z,203.07
2022-12-18T00:21:05.675Z,200.98
2022-12-18T00:21:37.986Z,203.82
2022-12-18T00:22:10.263Z,203.55
2022-12-18T00:22:42.574Z,204.57
2022-12-18T00:23:14.789Z,201.15
2022-12-18T00:23:47.555Z,206.20
2022-12-18T00:24:20.033Z,201.20
2022-12-18T00:24:53.061Z,205.13
2022-12-18T00:25:25.408Z,204.95
2022-12-18T00:26:04.615Z,203.75
2022-12-18T00:26:37.610Z,204.05
2022-12-18T00:27:10.781Z,207.57
2022-12-18T00:27:43.003Z,203.98
2022-12-18T00:28:15.404Z,202.68
2022-12-18T00:28:47.828Z,205.05
2022-12-18T00:29:20.185Z,201.77
2022-12-18T00:29:52.588Z,202.18
2022-12-18T00:30:24.873Z,205.07
2022-12-18T00:31:01.400Z,204.40
2022-12-18T00:31:34.234Z,208.40
2022-12-18T00:32:06.969Z,203.75
2022-12-18T00:32:39.364Z,202.20
2022-12-18T00:33:11.660Z,203.80
2022-12-18T00:33:44.170Z,202.07
2022-12-18T00:34:16.594Z,201.05
2022-12-18T00:34:48.894Z,202.93
2022-12-18T00:35:21.746Z,205.25
2022-12-18T00:35:54.254Z,204.07
2022-12-18T00:36:28.094Z,198.98
2022-12-18T00:37:00.474Z,201.15
2022-12-18T00:37:34.230Z,201.43
2022-12-18T00:38:07.466Z,200.45
2022-12-18T00:38:39.903Z,201.68
2022-12-18T00:39:13.396Z,201.15
2022-12-18T00:39:45.895Z,198.98
2022-12-18T00:40:18.210Z,202.75
2022-12-18T00:40:50.867Z,204.70
2022-12-18T00:41:42.408Z,204.50
2022-12-18T00:42:33.034Z,233.52
2022-12-18T00:43:05.396Z,230.00
2022-12-18T00:43:39.468Z,229.13
2022-12-18T00:44:13.250Z,229.95
2022-12-18T00:44:45.616Z,228.65
2022-12-18T00:45:19.115Z,227.73
2022-12-18T00:45:52.509Z,226.50
2022-12-18T00:46:24.838Z,223.43
2022-12-18T00:46:57.298Z,227.55
2022-12-18T00:47:29.766Z,224.95
2022-12-18T00:48:02.275Z,225.63
2022-12-18T00:48:34.533Z,224.13
2022-12-18T00:49:07.121Z,223.13
2022-12-18T00:49:39.463Z,223.38
2022-12-18T00:50:11.915Z,220.73
2022-12-18T00:50:44.213Z,221.93
2022-12-18T00:51:16.546Z,221.02
2022-12-18T00:51:48.999Z,219.10
2022-12-18T00:52:21.540Z,219.05
2022-12-18T00:52:54.113Z,224.80
2022-12-18T00:53:26.434Z,224.25
2022-12-18T00:53:58.948Z,224.45
2022-12-18T00:54:31.674Z,223.40
2022-12-18T00:55:06.407Z,219.10
2022-12-18T00:55:40.454Z,224.02
2022-12-18T00:56:13.259Z,222.90
2022-12-18T00:56:49.222Z,227.20
2022-12-18T00:57:21.971Z,215.50
2022-12-18T00:57:54.354Z,223.07
2022-12-18T00:58:26.754Z,223.95
2022-12-18T00:58:59.048Z,224.02
2022-12-18T00:59:31.530Z,221.98
2022-12-18T01:00:04.874Z,221.32
2022-12-18T01:00:37.216Z,224.32
2022-12-18T01:01:10.033Z,223.20
2022-12-18T01:01:42.597Z,221.50
2022-12-18T01:02:15.245Z,219.02
2022-12-18T01:02:49.223Z,220.48
2022-12-18T01:03:21.658Z,218.52
2022-12-18T01:03:54.069Z,216.38
2022-12-18T01:04:33.370Z,218.38
2022-12-18T01:05:06.723Z,216.55
2022-12-18T01:05:41.413Z,221.93
2022-12-18T01:06:15.788Z,220.60
2022-12-18T01:06:48.151Z,220.63
2022-12-18T01:07:20.625Z,218.98
2022-12-18T01:07:53.117Z,224.10
2022-12-18T01:08:25.593Z,222.07
2022-12-18T01:08:58.347Z,218.05
2022-12-18T01:09:30.933Z,222.55
2022-12-18T01:10:03.262Z,215.32
2022-12-18T01:10:36.083Z,217.02
2022-12-18T01:11:13.749Z,216.88
2022-12-18T01:11:47.380Z,215.70
2022-12-18T01:12:19.944Z,217.73
2022-12-18T01:12:52.525Z,221.20
2022-12-18T01:13:24.977Z,219.95
2022-12-18T01:13:57.296Z,215.20
2022-12-18T01:14:29.896Z,218.30
2022-12-18T01:15:02.422Z,219.23
2022-12-18T01:15:34.841Z,215.30
2022-12-18T01:16:07.763Z,216.25
2022-12-18T01:16:41.301Z,216.40
2022-12-18T01:17:13.887Z,223.02
2022-12-18T01:17:46.276Z,215.52
2022-12-18T01:18:18.968Z,213.90
2022-12-18T01:18:55.123Z,216.68
2022-12-18T01:19:27.465Z,218.80
2022-12-18T01:20:00.660Z,219.32
2022-12-18T01:23:24.083Z,233.68
2022-12-18T01:23:57.105Z,225.90
2022-12-18T01:24:29.430Z,225.10
2022-12-18T01:25:01.887Z,224.68
2022-12-18T01:25:34.648Z,225.65
2022-12-18T01:26:07.947Z,221.27
2022-12-18T01:26:41.232Z,225.20
2022-12-18T01:27:13.724Z,227.70
2022-12-18T01:27:46.215Z,224.02
2022-12-18T01:28:18.656Z,222.98
2022-12-18T01:28:51.345Z,222.65
2022-12-18T01:29:24.113Z,223.15
2022-12-18T01:29:56.523Z,219.55
2022-12-18T01:30:28.872Z,218.20
2022-12-18T01:31:30.375Z,220.10
2022-12-18T01:32:02.901Z,221.07
2022-12-18T01:32:35.805Z,216.52
2022-12-18T01:33:08.182Z,217.73
2022-12-18T01:33:41.823Z,215.95
2022-12-18T01:34:14.475Z,221.27
2022-12-18T01:34:47.602Z,231.00
2022-12-18T01:35:19.813Z,223.63
2022-12-18T01:35:52.258Z,222.15
2022-12-18T01:36:25.800Z,219.27
2022-12-18T01:36:58.045Z,222.88
2022-12-18T01:37:30.417Z,217.15
2022-12-18T01:38:02.620Z,214.93
2022-12-18T01:38:34.892Z,219.05
2022-12-18T01:39:08.983Z,214.63
2022-12-18T01:39:41.391Z,222.68
2022-12-18T01:40:13.755Z,215.88
2022-12-18T01:40:46.071Z,212.45
2022-12-18T01:41:20.479Z,220.88
2022-12-18T01:42:04.689Z,216.40
2022-12-18T01:42:37.138Z,216.50
2022-12-18T01:43:10.355Z,217.95
2022-12-18T01:43:42.564Z,215.35
2022-12-18T01:44:33.337Z,218.57
2022-12-18T01:45:14.744Z,219.02
2022-12-18T01:45:48.870Z,213.43
2022-12-18T01:46:22.455Z,211.55
2022-12-18T01:46:54.787Z,213.07
2022-12-18T01:47:27.118Z,218.25
2022-12-18T01:48:09.884Z,209.95
2022-12-18T01:48:43.670Z,214.30
2022-12-18T01:49:15.975Z,210.25
2022-12-18T01:49:48.702Z,213.60
2022-12-18T01:50:23.155Z,211.95
2022-12-18T01:50:55.530Z,211.80
2022-12-18T01:51:31.105Z,212.55
2022-12-18T01:52:03.594Z,214.02
2022-12-18T01:52:36.819Z,214.15
2022-12-18T01:53:12.496Z,211.52
2022-12-18T01:53:45.834Z,214.50
2022-12-18T01:54:18.522Z,213.32
2022-12-18T01:54:51.451Z,212.38
2022-12-18T01:55:25.920Z,214.45
2022-12-18T01:55:58.931Z,213.73
2022-12-18T01:56:31.267Z,214.45
2022-12-18T01:57:03.718Z,209.98
2022-12-18T01:57:36.697Z,215.50
2022-12-18T01:58:09.290Z,213.80
2022-12-18T01:58:49.829Z,217.13
2022-12-18T01:59:22.472Z,216.93
2022-12-18T01:59:57.955Z,214.35
2022-12-18T02:00:30.568Z,215.65
2022-12-18T02:01:02.859Z,218.65
2022-12-18T02:01:39.111Z,218.35
2022-12-18T02:02:12.300Z,212.52
2022-12-18T02:02:45.952Z,210.52
2022-12-18T02:03:18.732Z,211.27
2022-12-18T02:03:52.630Z,213.75
2022-12-18T02:04:26.546Z,210.20
2022-12-18T02:04:59.502Z,210.48
2022-12-18T02:05:31.836Z,210.07
2022-12-18T02:06:05.326Z,211.02
2022-12-18T02:06:41.226Z,209.45
2022-12-18T02:07:14.097Z,208.30
2022-12-18T02:08:04.792Z,210.98
2022-12-18T02:08:41.549Z,205.57
2022-12-18T02:09:16.334Z,212.13
2022-12-18T02:09:51.713Z,211.90
2022-12-18T02:10:27.366Z,216.43
2022-12-18T02:11:14.908Z,210.25
2022-12-18T02:12:05.729Z,217.73
2022-12-18T02:12:44.538Z,217.13
2022-12-18T02:13:36.064Z,217.32
2022-12-18T02:14:17.634Z,219.57
2022-12-18T02:15:19.259Z,210.93
2022-12-18T02:15:54.524Z,226.73
2022-12-18T02:16:45.020Z,221.23
2022-12-18T02:17:19.071Z,213.30
2022-12-18T02:17:58.259Z,220.52
2022-12-18T02:18:33.623Z,215.45
2022-12-18T02:19:17.756Z,214.88
2022-12-18T02:20:09.245Z,216.07
2022-12-18T02:20:55.323Z,218.68
2022-12-18T02:21:39.590Z,214.75
2022-12-18T02:22:14.471Z,219.00
2022-12-18T02:23:05.153Z,218.73
2022-12-18T02:23:37.797Z,220.23
2022-12-18T02:24:30.590Z,215.20
2022-12-18T02:25:23.070Z,215.88
2022-12-18T02:25:55.252Z,212.00
2022-12-18T02:26:30.210Z,216.15
2022-12-18T02:27:10.211Z,213.45
2022-12-18T02:27:45.060Z,219.45
2022-12-18T02:28:20.108Z,216.20
2022-12-18T02:28:54.452Z,218.45
2022-12-18T02:29:39.446Z,220.73
2022-12-18T02:30:12.136Z,213.93
2022-12-18T02:30:47.243Z,216.52
2022-12-18T02:31:22.988Z,211.65
2022-12-18T02:31:57.585Z,213.32
2022-12-18T02:32:32.349Z,210.75
2022-12-18T02:33:06.186Z,211.18
2022-12-18T02:33:42.384Z,210.93
2022-12-18T02:34:16.111Z,210.30
2022-12-18T02:34:49.450Z,209.23
2022-12-18T02:35:25.187Z,209.18
2022-12-18T02:36:01.153Z,209.13
2022-12-18T02:36:34.706Z,212.48
2022-12-18T02:37:09.066Z,212.95
2022-12-18T02:37:42.679Z,213.80
2022-12-18T02:38:16.749Z,214.32
2022-12-18T02:38:52.472Z,214.48
2022-12-18T02:39:26.278Z,213.93
2022-12-18T02:40:05.118Z,218.73
2022-12-18T02:40:39.850Z,214.80
2022-12-18T02:41:12.881Z,213.70
2022-12-18T02:41:45.722Z,214.82
2022-12-18T02:42:19.994Z,215.07
2022-12-18T02:42:54.175Z,208.43
2022-12-18T02:43:26.600Z,211.27
2022-12-18T02:44:03.215Z,215.05
2022-12-18T02:44:48.021Z,216.85
2022-12-18T02:45:23.789Z,223.25
2022-12-18T02:45:59.933Z,214.82
2022-12-18T02:46:35.249Z,212.40
2022-12-18T02:47:16.482Z,215.52
2022-12-18T02:47:50.606Z,211.55
2022-12-18T02:48:31.861Z,213.75
2022-12-18T02:49:10.369Z,214.27
2022-12-18T02:49:49.394Z,216.30
2022-12-18T02:50:39.245Z,211.32
2022-12-18T02:51:19.602Z,208.80
2022-12-18T02:51:57.488Z,211.30
2022-12-18T02:52:36.616Z,210.75
2022-12-18T02:53:33.661Z,212.85
2022-12-18T02:54:11.658Z,211.82
2022-12-18T02:54:51.482Z,212.93
2022-12-18T02:55:39.220Z,210.63
2022-12-18T02:56:55.209Z,215.00
2022-12-18T02:57:33.931Z,210.18
2022-12-18T02:58:18.290Z,206.05
2022-12-18T02:58:53.851Z,207.68
2022-12-18T02:59:48.943Z,203.95
2022-12-18T03:00:36.749Z,201.48
2022-12-18T03:01:09.009Z,208.48
2022-12-18T03:01:51.250Z,211.25
2022-12-18T03:02:35.551Z,206.15
2022-12-18T03:03:12.399Z,205.68
2022-12-18T03:03:45.914Z,210.95
2022-12-18T03:04:38.533Z,207.18
2022-12-18T03:05:13.864Z,207.77
2022-12-18T03:06:10.842Z,205.27
2022-12-18T03:06:45.111Z,207.95
2022-12-18T03:07:21.222Z,209.38
2022-12-18T03:07:59.083Z,205.10
2022-12-18T03:08:39.085Z,207.13
2022-12-18T03:09:20.633Z,207.23
2022-12-18T03:09:55.149Z,201.45
2022-12-18T03:10:32.179Z,208.27
2022-12-18T03:11:06.168Z,207.85
2022-12-18T03:12:01.373Z,204.65
2022-12-18T03:12:36.658Z,213.18
2022-12-18T03:13:11.134Z,208.20
2022-12-18T03:13:43.781Z,207.30
2022-12-18T03:14:18.831Z,205.90
2022-12-18T03:15:04.811Z,206.98
2022-12-18T03:15:41.390Z,208.32
2022-12-18T03:16:26.003Z,205.60
2022-12-18T03:17:00.203Z,204.98
2022-12-18T03:17:34.117Z,202.82
2022-12-18T03:18:08.947Z,204.82
2022-12-18T03:18:47.576Z,198.55
2022-12-18T03:19:22.969Z,207.13
2022-12-18T03:19:59.641Z,206.57
2022-12-18T03:20:32.792Z,206.98
2022-12-18T03:21:06.400Z,206.88
2022-12-18T03:21:44.898Z,204.30
2022-12-18T03:22:17.382Z,207.88
2022-12-18T03:22:58.529Z,203.93
2022-12-18T03:23:33.492Z,208.05
2022-12-18T03:24:07.983Z,206.15
2022-12-18T03:24:41.049Z,203.90
2022-12-18T03:25:15.187Z,205.45
2022-12-18T03:25:49.393Z,201.93
2022-12-18T03:26:23.299Z,207.15
2022-12-18T03:27:01.509Z,205.52
2022-12-18T03:27:34.863Z,206.52
2022-12-18T03:28:13.300Z,207.80
2022-12-18T03:28:48.559Z,209.07
2022-12-18T03:29:20.891Z,209.73
2022-12-18T03:29:58.981Z,209.07
2022-12-18T03:30:34.559Z,207.50
2022-12-18T03:31:09.807Z,205.32
2022-12-18T03:31:45.873Z,201.45
2022-12-18T03:32:30.481Z,204.07
2022-12-18T03:33:09.009Z,209.57
2022-12-18T03:33:47.878Z,208.90
2022-12-18T03:34:26.013Z,206.30
2022-12-18T03:34:59.663Z,209.30
2022-12-18T03:35:37.546Z,205.98
2022-12-18T03:36:10.906Z,203.32
2022-12-18T03:36:44.489Z,207.60
2022-12-18T03:37:17.517Z,213.27
2022-12-18T03:37:50.251Z,208.50
2022-12-18T03:38:23.394Z,209.30
2022-12-18T03:38:58.934Z,208.85
2022-12-18T03:39:33.274Z,213.18
2022-12-18T03:40:06.803Z,207.45
2022-12-18T03:40:43.134Z,213.65
2022-12-18T03:41:33.883Z,206.35
2022-12-18T03:42:33.833Z,215.95
2022-12-18T03:43:18.968Z,212.23
2022-12-18T03:44:01.118Z,210.85
2022-12-18T03:44:38.005Z,212.82
2022-12-18T03:45:20.771Z,217.55
2022-12-18T03:46:02.590Z,207.38
2022-12-18T03:46:42.174Z,204.70
2022-12-18T03:47:17.128Z,209.77
2022-12-18T03:47:50.382Z,207.27
2022-12-18T03:48:44.197Z,213.07
2022-12-18T03:49:55.336Z,205.23
2022-12-18T03:50:37.204Z,212.32
2022-12-18T03:51:12.861Z,218.30
2022-12-18T03:51:51.604Z,213.68
2022-12-18T03:52:39.050Z,210.23
2022-12-18T03:53:16.666Z,210.70
2022-12-18T03:53:56.913Z,210.50
2022-12-18T03:54:35.211Z,208.90
2022-12-18T03:55:14.732Z,211.43
2022-12-18T03:55:49.247Z,208.52
2022-12-18T03:56:23.946Z,211.15
2022-12-18T03:56:59.362Z,210.02
2022-12-18T03:57:33.443Z,209.68
2022-12-18T03:58:08.121Z,208.75
2022-12-18T03:58:55.410Z,204.32
2022-12-18T03:59:31.767Z,209.25
2022-12-18T04:00:09.395Z,212.90
2022-12-18T04:00:58.027Z,213.70
2022-12-18T04:01:36.872Z,211.48
2022-12-18T04:02:10.508Z,210.68
2022-12-18T04:02:48.910Z,204.57
2022-12-18T04:03:29.605Z,210.32
2022-12-18T04:04:03.874Z,206.20
2022-12-18T04:04:40.183Z,210.80
2022-12-18T04:05:13.498Z,211.48
2022-12-18T04:05:49.534Z,210.43
2022-12-18T04:06:23.893Z,210.27
2022-12-18T04:06:58.092Z,204.88
2022-12-18T04:07:30.613Z,209.98
2022-12-18T04:08:04.313Z,205.15
2022-12-18T04:08:41.376Z,206.90
2022-12-18T04:09:16.274Z,207.38
2022-12-18T04:09:53.969Z,208.48
2022-12-18T04:10:28.855Z,210.18
2022-12-18T04:11:03.282Z,207.95
2022-12-18T04:11:35.942Z,206.15
2022-12-18T04:12:10.010Z,212.07
2022-12-18T04:12:42.673Z,209.20
2022-12-18T04:13:29.430Z,208.80
2022-12-18T04:14:07.059Z,207.15
2022-12-18T04:14:39.989Z,207.55
2022-12-18T04:15:14.723Z,208.98
2022-12-18T04:15:49.055Z,206.52
2022-12-18T04:16:21.930Z,206.55
2022-12-18T04:16:57.788Z,209.15
2022-12-18T04:17:35.605Z,208.70
2022-12-18T04:18:08.928Z,208.43
2022-12-18T04:18:47.459Z,212.48
2022-12-18T04:19:20.746Z,210.98
2022-12-18T04:19:55.836Z,208.85
2022-12-18T04:20:30.069Z,205.07
2022-12-18T04:21:03.048Z,203.23
2022-12-18T04:21:35.301Z,205.90
2022-12-18T04:22:07.498Z,202.35
2022-12-18T04:22:45.954Z,203.80
2022-12-18T04:23:19.525Z,204.15
2022-12-18T04:23:52.021Z,201.32
2022-12-18T04:24:26.689Z,201.27
2022-12-18T04:25:14.038Z,202.60
2022-12-18T04:25:57.848Z,205.35
2022-12-18T04:26:45.002Z,206.18
2022-12-18T04:27:23.034Z,202.77
2022-12-18T04:27:56.631Z,199.98
2022-12-18T04:28:28.956Z,202.10
2022-12-18T04:29:01.352Z,199.90
2022-12-18T04:29:34.471Z,203.68
2022-12-18T04:30:07.263Z,201.30
2022-12-18T04:30:39.586Z,206.93
2022-12-18T04:31:11.969Z,205.55
2022-12-18T04:31:44.490Z,205.98
2022-12-18T04:32:17.098Z,204.60
2022-12-18T04:32:52.299Z,201.65
2022-12-18T04:33:25.851Z,205.45
2022-12-18T04:33:58.229Z,203.52
2022-12-18T04:34:30.874Z,201.73
2022-12-18T04:35:05.429Z,198.20
2022-12-18T04:35:38.532Z,202.57
2022-12-18T04:36:11.105Z,203.27
2022-12-18T04:36:43.768Z,201.45
2022-12-18T04:37:16.352Z,198.77
2022-12-18T04:37:48.900Z,206.02
2022-12-18T04:38:21.695Z,200.50
2022-12-18T04:39:00.368Z,206.07
2022-12-18T04:39:32.749Z,204.75
2022-12-18T04:40:11.022Z,201.88
2022-12-18T04:40:47.574Z,203.77
2022-12-18T04:41:26.980Z,207.05
2022-12-18T04:41:59.893Z,206.93
2022-12-18T04:42:32.224Z,206.63
2022-12-18T04:43:05.020Z,205.90
2022-12-18T04:43:37.515Z,209.00
2022-12-18T04:44:10.217Z,205.90
2022-12-18T04:44:42.427Z,211.32
2022-12-18T04:45:14.698Z,208.88
2022-12-18T04:45:47.018Z,206.57
2022-12-18T04:46:19.340Z,209.35
2022-12-18T04:46:51.675Z,208.15
2022-12-18T04:47:24.037Z,203.63
2022-12-18T04:47:58.011Z,206.48
2022-12-18T04:48:31.077Z,203.40
2022-12-18T04:49:03.416Z,201.80
2022-12-18T04:49:35.670Z,204.95
2022-12-18T04:50:08.112Z,202.65
2022-12-18T04:50:40.350Z,202.88
2022-12-18T04:51:13.381Z,205.15
2022-12-18T04:51:45.652Z,206.35
2022-12-18T04:52:17.910Z,204.15
2022-12-18T04:52:50.203Z,202.27
2022-12-18T04:53:22.554Z,205.20
2022-12-18T04:53:54.887Z,203.13
2022-12-18T04:54:27.216Z,202.90
2022-12-18T04:54:59.558Z,197.68
2022-12-18T04:55:31.843Z,201.45
2022-12-18T04:56:07.904Z,201.85
2022-12-18T04:56:40.969Z,201.68
2022-12-18T04:57:13.305Z,208.35
2022-12-18T04:57:46.501Z,205.05
2022-12-18T04:58:18.695Z,205.20
2022-12-18T04:58:50.884Z,209.18
2022-12-18T04:59:23.240Z,204.35
2022-12-18T04:59:56.176Z,202.07
2022-12-18T05:00:28.984Z,202.30
2022-12-18T05:01:01.891Z,205.80
2022-12-18T05:01:35.630Z,202.65
2022-12-18T05:02:09.649Z,205.40
2022-12-18T05:02:42.137Z,206.48
2022-12-18T05:03:14.651Z,201.00
2022-12-18T05:03:47.107Z,206.65
2022-12-18T05:04:19.692Z,204.05
2022-12-18T05:04:52.408Z,204.30
2022-12-18T05:05:24.697Z,204.68
2022-12-18T05:05:57.038Z,204.48
2022-12-18T05:06:29.430Z,207.23
2022-12-18T05:07:01.716Z,210.05
2022-12-18T05:07:34.093Z,200.75
2022-12-18T05:08:06.882Z,205.80
2022-12-18T05:08:39.137Z,204.18
2022-12-18T05:09:11.365Z,201.73
2022-12-18T05:09:43.629Z,208.23
2022-12-18T05:10:15.985Z,205.27
2022-12-18T05:10:48.225Z,207.43
2022-12-18T05:11:20.596Z,205.05
2022-12-18T05:11:52.881Z,206.18
2022-12-18T05:12:25.204Z,206.55
2022-12-18T05:13:01.345Z,200.10
2022-12-18T05:13:34.483Z,204.80
2022-12-18T05:14:06.825Z,200.35
2022-12-18T05:14:39.026Z,204.52
2022-12-18T05:15:11.306Z,207.57
2022-12-18T05:15:43.675Z,203.80
2022-12-18T05:16:16.232Z,199.15
2022-12-18T05:16:48.563Z,200.02
2022-12-18T05:17:20.782Z,202.30
2022-12-18T05:17:53.106Z,203.13
2022-12-18T05:18:25.621Z,208.07
2022-12-18T05:18:57.904Z,197.63
2022-12-18T05:19:30.120Z,196.35
2022-12-18T05:20:02.414Z,198.23
2022-12-18T05:20:34.789Z,196.18
2022-12-18T05:21:07.069Z,202.98
2022-12-18T05:21:39.481Z,200.27
2022-12-18T05:22:12.720Z,201.70
2022-12-18T05:22:45.088Z,200.68
2022-12-18T05:23:17.450Z,201.52
2022-12-18T05:23:49.755Z,199.60
2022-12-18T05:24:22.195Z,196.75
2022-12-18T05:24:54.627Z,193.23
2022-12-18T05:25:27.346Z,199.23
2022-12-18T05:26:03.805Z,200.23
2022-12-18T05:26:36.222Z,203.77
2022-12-18T05:27:08.458Z,201.02
2022-12-18T05:27:40.664Z,196.43
2022-12-18T05:28:12.861Z,198.63
2022-12-18T05:28:45.250Z,195.73
2022-12-18T05:29:17.522Z,202.00
2022-12-18T05:29:49.846Z,199.52
2022-12-18T05:30:22.369Z,197.48
2022-12-18T05:30:58.866Z,197.93
2022-12-18T05:31:35.931Z,199.50
2022-12-18T05:32:11.619Z,200.18
2022-12-18T05:32:44.010Z,194.85
2022-12-18T05:33:16.317Z,197.77
2022-12-18T05:33:48.581Z,200.27
2022-12-18T05:34:20.825Z,198.32
2022-12-18T05:34:53.116Z,200.95
2022-12-18T05:35:25.985Z,195.20
2022-12-18T05:35:59.387Z,201.98
2022-12-18T05:36:31.686Z,200.27
2022-12-18T05:37:04.008Z,202.80
2022-12-18T05:37:42.531Z,202.50
2022-12-18T05:38:15.431Z,203.68
2022-12-18T05:38:47.829Z,204.40
2022-12-18T05:39:20.157Z,201.98
2022-12-18T05:39:52.405Z,198.40
2022-12-18T05:40:24.670Z,198.80
2022-12-18T05:40:57.317Z,197.68
2022-12-18T05:41:29.900Z,195.88
2022-12-18T05:42:02.215Z,201.48
2022-12-18T05:42:34.575Z,194.70
2022-12-18T05:43:06.940Z,190.02
2022-12-18T05:43:40.971Z,200.63
2022-12-18T05:44:13.675Z,197.07
2022-12-18T05:44:46.133Z,199.65
2022-12-18T05:45:18.867Z,197.00
2022-12-18T05:45:51.430Z,198.70
2022-12-18T05:46:23.977Z,198.70
2022-12-18T05:46:56.337Z,196.52
2022-12-18T05:47:30.045Z,194.95
2022-12-18T05:48:02.343Z,197.63
2022-12-18T05:48:34.774Z,197.95
2022-12-18T05:49:07.135Z,197.38
2022-12-18T05:49:39.976Z,195.68
2022-12-18T05:50:12.405Z,196.13
2022-12-18T05:50:46.647Z,195.15
2022-12-18T05:51:20.429Z,195.70
2022-12-18T05:51:52.664Z,197.27
2022-12-18T05:52:25.585Z,194.60
2022-12-18T05:52:57.877Z,198.30
2022-12-18T05:53:30.251Z,195.20
2022-12-18T05:54:02.670Z,193.93
2022-12-18T05:54:34.960Z,200.50
2022-12-18T05:55:07.355Z,200.60
2022-12-18T05:55:40.950Z,199.85
2022-12-18T05:56:16.014Z,198.73
2022-12-18T05:56:48.921Z,196.40
2022-12-18T05:57:21.828Z,198.43
2022-12-18T05:57:54.084Z,198.82
2022-12-18T05:58:26.377Z,202.48
2022-12-18T05:58:58.583Z,203.32
2022-12-18T05:59:31.008Z,197.27
2022-12-18T06:00:04.063Z,199.15
2022-12-18T06:00:45.683Z,203.10
2022-12-18T06:01:19.307Z,200.23
2022-12-18T06:01:51.950Z,204.88
2022-12-18T06:02:24.543Z,199.48
2022-12-18T06:02:57.230Z,200.15
2022-12-18T06:03:33.910Z,197.75
2022-12-18T06:04:06.549Z,199.10
2022-12-18T06:04:39.512Z,197.05
2022-12-18T06:05:12.317Z,200.38
2022-12-18T06:05:45.772Z,201.50
2022-12-18T06:06:19.472Z,201.35
2022-12-18T06:06:51.924Z,196.20
2022-12-18T06:07:24.603Z,199.90
2022-12-18T06:07:57.004Z,188.82
2022-12-18T06:08:29.565Z,203.00
2022-12-18T06:09:02.720Z,197.07
2022-12-18T06:09:34.986Z,203.30
2022-12-18T06:10:07.532Z,205.20
2022-12-18T06:10:40.088Z,199.98
2022-12-18T06:11:12.462Z,198.43
2022-12-18T06:11:44.726Z,203.52
2022-12-18T06:12:17.091Z,206.93
2022-12-18T06:12:49.352Z,203.45
2022-12-18T06:13:22.012Z,204.35
2022-12-18T06:13:58.643Z,206.23
2022-12-18T06:14:31.615Z,204.38
2022-12-18T06:15:04.613Z,197.70
2022-12-18T06:15:40.101Z,198.85
2022-12-18T06:16:12.404Z,194.00
2022-12-18T06:16:44.979Z,203.60
2022-12-18T06:17:17.346Z,197.65
2022-12-18T06:17:53.325Z,200.32
2022-12-18T06:18:25.992Z,197.95
2022-12-18T06:19:01.896Z,201.93
2022-12-18T06:19:34.186Z,198.65
2022-12-18T06:20:08.282Z,203.27
2022-12-18T06:20:42.533Z,205.05
2022-12-18T06:21:14.855Z,206.25
2022-12-18T06:21:47.953Z,203.32
2022-12-18T06:22:21.132Z,201.55
2022-12-18T06:22:53.469Z,201.73
2022-12-18T06:23:25.696Z,201.73
2022-12-18T06:23:58.033Z,203.63
2022-12-18T06:24:30.895Z,201.82
2022-12-18T06:25:03.221Z,202.57
2022-12-18T06:25:38.020Z,202.85
2022-12-18T06:26:11.379Z,207.77
2022-12-18T06:26:43.735Z,199.15
2022-12-18T06:27:16.152Z,202.38
2022-12-18T06:27:48.677Z,204.38
2022-12-18T06:28:21.039Z,202.10
2022-12-18T06:28:53.334Z,199.82
2022-12-18T06:29:25.714Z,202.38
2022-12-18T06:29:57.946Z,196.77
2022-12-18T06:30:30.144Z,205.75
2022-12-18T06:31:04.092Z,198.07
2022-12-18T06:31:36.507Z,196.18
2022-12-18T06:32:08.865Z,200.65
2022-12-18T06:32:41.137Z,193.52
2022-12-18T06:33:13.400Z,201.13
2022-12-18T06:33:46.000Z,212.70
2022-12-18T06:34:18.246Z,213.10
2022-12-18T06:34:50.687Z,214.95
2022-12-18T06:35:23.078Z,213.68
2022-12-18T06:36:00.922Z,212.38
2022-12-18T06:36:33.655Z,217.20
2022-12-18T06:37:05.957Z,208.00
2022-12-18T06:37:38.341Z,211.98
2022-12-18T06:38:10.664Z,210.02
2022-12-18T06:38:44.032Z,208.48
2022-12-18T06:39:16.240Z,211.77
2022-12-18T06:39:48.728Z,208.35
2022-12-18T06:40:21.030Z,206.57
2022-12-18T06:40:53.309Z,209.63
2022-12-18T06:41:25.659Z,208.18
2022-12-18T06:41:57.998Z,204.48
2022-12-18T06:42:30.583Z,205.48
2022-12-18T06:43:02.885Z,208.05
2022-12-18T06:43:35.222Z,210.40
2022-12-18T06:44:07.791Z,205.63
2022-12-18T06:44:40.041Z,208.02
2022-12-18T06:45:12.672Z,207.10
2022-12-18T06:45:45.101Z,211.05
2022-12-18T06:46:17.590Z,212.50
2022-12-18T06:46:49.913Z,216.73
2022-12-18T06:47:22.463Z,205.77
2022-12-18T06:47:54.832Z,208.95
2022-12-18T06:48:27.078Z,208.85
2022-12-18T06:48:59.453Z,204.75
2022-12-18T06:49:31.731Z,207.68
2022-12-18T06:50:04.118Z,208.13
2022-12-18T06:50:36.373Z,205.48
2022-12-18T06:51:08.655Z,208.40
2022-12-18T06:51:41.226Z,208.60
2022-12-18T06:52:13.486Z,213.25
2022-12-18T06:52:45.719Z,207.68
2022-12-18T06:53:18.003Z,206.23
2022-12-18T06:53:50.801Z,206.20
2022-12-18T06:54:23.243Z,210.10
2022-12-18T06:54:56.310Z,205.80
2022-12-18T06:55:28.694Z,203.55
2022-12-18T06:56:11.102Z,209.25
2022-12-18T06:56:43.716Z,207.82
2022-12-18T06:57:16.185Z,207.35
2022-12-18T06:57:48.646Z,208.50
2022-12-18T06:58:21.403Z,209.85
2022-12-18T06:58:53.867Z,205.95
2022-12-18T06:59:26.208Z,206.93
2022-12-18T06:59:59.444Z,208.43
2022-12-18T07:00:31.736Z,209.07
2022-12-18T07:01:04.988Z,209.88
2022-12-18T07:01:37.500Z,205.60
2022-12-18T07:02:12.966Z,209.13
2022-12-18T07:02:45.769Z,203.77
2022-12-18T07:03:18.225Z,208.73
2022-12-18T07:03:55.318Z,210.15
2022-12-18T07:04:31.017Z,209.35
2022-12-18T07:05:10.258Z,209.02
2022-12-18T07:05:43.228Z,212.48
2022-12-18T07:06:16.668Z,211.88
2022-12-18T07:06:48.995Z,208.98
2022-12-18T07:07:21.535Z,212.50
2022-12-18T07:07:53.991Z,206.77
2022-12-18T07:08:26.441Z,214.30
2022-12-18T07:08:58.892Z,212.00
2022-12-18T07:09:31.197Z,214.63
2022-12-18T07:10:03.924Z,203.65
2022-12-18T07:10:46.313Z,208.13
2022-12-18T07:11:19.913Z,208.20
2022-12-18T07:11:52.128Z,204.95
2022-12-18T07:12:24.348Z,208.52
2022-12-18T07:12:57.130Z,216.43
2022-12-18T07:13:29.496Z,209.00
2022-12-18T07:14:01.777Z,211.25
2022-12-18T07:14:34.001Z,203.55
2022-12-18T07:15:06.593Z,207.63
2022-12-18T07:15:38.927Z,207.35
2022-12-18T07:16:18.329Z,199.63
2022-12-18T07:16:54.888Z,210.52
2022-12-18T07:17:27.290Z,208.63
2022-12-18T07:17:59.506Z,209.63